Time,TemperatureF,DewpointF,PressureIn,WindDirection,WindDirectionDegrees,WindSpeedMPH,WindSpeedGustMPH,Humidity,HourlyPrecipIn,Conditions,Clouds,dailyrainin,SoftwareType,DateUTC
2013-05-16 00:00:00,50.4,49.3,29.70,SE,127,0.0,15.0,96,0.00,,,0.00,Wunderground v.1.15,2013-05-16 04:00:00,
2013-05-16 00:05:00,50.3,49.2,29.70,SE,129,0.0,15.0,96,0.00,,,0.00,Wunderground v.1.15,2013-05-16 04:05:00,
2013-05-16 00:11:00,50.3,49.5,29.70,SE,139,0.0,15.0,97,0.00,,,0.00,Wunderground v.1.15,2013-05-16 04:11:00,
2013-05-16 00:15:00,50.4,49.6,29.70,WNW,303,0.0,15.0,97,0.00,,,0.00,Wunderground v.1.15,2013-05-16 04:15:00,
2013-05-16 00:20:00,50.2,49.1,29.70,WNW,300,1.0,15.0,96,0.00,,,0.00,Wunderground v.1.15,2013-05-16 04:20:00,
2013-05-16 00:25:00,50.1,49.3,29.71,WNW,289,1.0,15.0,97,0.00,,,0.00,Wunderground v.1.15,2013-05-16 04:25:00,
2013-05-16 00:30:00,50.1,49.3,29.71,WNW,296,1.0,1.0,97,0.00,,,0.00,Wunderground v.1.15,2013-05-16 04:30:00,
2013-05-16 00:35:00,50.3,49.5,29.71,WNW,296,0.0,15.0,97,0.00,,,0.00,Wunderground v.1.15,2013-05-16 04:35:00,
2013-05-16 00:45:00,50.3,49.5,29.72,WNW,296,0.0,15.0,97,0.00,,,0.00,Wunderground v.1.15,2013-05-16 04:45:00,
2013-05-16 00:55:00,50.3,49.5,29.71,WNW,296,0.0,15.0,97,0.00,,,0.00,Wunderground v.1.15,2013-05-16 04:55:00,
2013-05-16 01:05:00,50.2,49.4,29.71,WNW,296,0.0,15.0,97,0.00,,,0.00,Wunderground v.1.15,2013-05-16 05:05:00,
2013-05-16 01:15:00,50.1,49.3,29.71,WNW,296,0.0,15.0,97,0.00,,,0.00,Wunderground v.1.15,2013-05-16 05:15:00,
2013-05-16 02:15:00,49.1,48.3,29.70,WNW,297,0.0,15.0,97,0.00,,,0.00,Wunderground v.1.15,2013-05-16 06:15:00,
2013-05-16 02:25:00,49.1,48.3,29.70,WNW,296,0.0,15.0,97,0.00,,,0.00,Wunderground v.1.15,2013-05-16 06:25:00,
2013-05-16 02:40:00,48.8,48.0,29.70,WNW,296,0.0,15.0,97,0.00,,,0.00,Wunderground v.1.15,2013-05-16 06:40:00,
2013-05-16 02:50:00,48.4,47.6,29.70,WNW,296,0.0,15.0,97,0.00,,,0.00,Wunderground v.1.15,2013-05-16 06:50:00,
2013-05-16 02:55:00,48.3,47.5,29.70,WNW,297,0.0,15.0,97,0.00,,,0.00,Wunderground v.1.15,2013-05-16 06:55:00,
2013-05-16 03:05:00,48.0,47.2,29.70,WNW,296,0.0,15.0,97,0.00,,,0.00,Wunderground v.1.15,2013-05-16 07:05:00,
2013-05-16 03:11:00,47.9,47.1,29.70,WNW,297,0.0,15.0,97,0.00,,,0.00,Wunderground v.1.15,2013-05-16 07:11:00,
2013-05-16 03:20:00,47.8,47.0,29.71,WNW,297,0.0,15.0,97,0.00,,,0.00,Wunderground v.1.15,2013-05-16 07:20:00,
2013-05-16 03:25:00,47.7,46.9,29.70,WNW,297,0.0,15.0,97,0.00,,,0.00,Wunderground v.1.15,2013-05-16 07:25:00,
2013-05-16 03:35:00,47.6,47.1,29.70,WNW,297,0.0,15.0,98,0.00,,,0.00,Wunderground v.1.15,2013-05-16 07:35:00,
2013-05-16 03:45:00,47.6,47.1,29.70,WNW,296,0.0,15.0,98,0.00,,,0.00,Wunderground v.1.15,2013-05-16 07:45:00,
2013-05-16 03:55:00,47.5,47.0,29.70,WNW,296,0.0,15.0,98,0.00,,,0.00,Wunderground v.1.15,2013-05-16 07:55:00,
2013-05-16 04:05:00,47.5,47.0,29.71,WNW,296,0.0,15.0,98,0.00,,,0.00,Wunderground v.1.15,2013-05-16 08:05:00,
2013-05-16 04:11:00,47.4,46.9,29.71,WNW,296,0.0,15.0,98,0.00,,,0.00,Wunderground v.1.15,2013-05-16 08:11:00,
2013-05-16 04:20:00,47.2,46.7,29.70,WNW,296,0.0,15.0,98,0.00,,,0.00,Wunderground v.1.15,2013-05-16 08:20:00,
2013-05-16 04:30:00,47.1,46.6,29.70,WNW,297,0.0,15.0,98,0.00,,,0.00,Wunderground v.1.15,2013-05-16 08:30:00,
2013-05-16 04:40:00,46.7,45.9,29.70,WNW,296,0.0,15.0,97,0.00,,,0.00,Wunderground v.1.15,2013-05-16 08:40:00,
2013-05-16 04:50:00,46.5,45.7,29.70,WNW,297,0.0,15.0,97,0.00,,,0.00,Wunderground v.1.15,2013-05-16 08:50:00,
2013-05-16 05:00:00,46.4,45.9,29.70,WNW,296,0.0,15.0,98,0.00,,,0.00,Wunderground v.1.15,2013-05-16 09:00:00,
2013-05-16 05:11:00,46.5,46.0,29.70,WNW,296,0.0,15.0,98,0.00,,,0.00,Wunderground v.1.15,2013-05-16 09:11:00,
2013-05-16 05:20:00,46.5,46.0,29.70,WNW,296,0.0,15.0,98,0.00,,,0.00,Wunderground v.1.15,2013-05-16 09:20:00,
2013-05-16 05:30:00,46.3,45.8,29.70,WNW,296,0.0,15.0,98,0.00,,,0.00,Wunderground v.1.15,2013-05-16 09:30:00,
2013-05-16 05:40:00,46.3,45.8,29.70,WNW,296,0.0,15.0,98,0.00,,,0.00,Wunderground v.1.15,2013-05-16 09:40:00,
2013-05-16 05:50:00,46.3,45.8,29.71,WNW,297,0.0,15.0,98,0.00,,,0.00,Wunderground v.1.15,2013-05-16 09:50:00,
2013-05-16 06:00:00,46.5,46.0,29.71,WNW,297,0.0,15.0,98,0.00,,,0.00,Wunderground v.1.15,2013-05-16 10:00:00,
2013-05-16 06:05:00,46.5,46.0,29.71,WNW,296,0.0,15.0,98,0.00,,,0.00,Wunderground v.1.15,2013-05-16 10:05:00,
2013-05-16 06:11:00,46.6,46.1,29.71,WNW,296,0.0,15.0,98,0.00,,,0.00,Wunderground v.1.15,2013-05-16 10:11:00,
2013-05-16 06:20:00,46.8,46.3,29.71,WNW,296,0.0,15.0,98,0.00,,,0.00,Wunderground v.1.15,2013-05-16 10:20:00,
2013-05-16 06:30:00,47.1,46.6,29.71,WNW,296,0.0,15.0,98,0.00,,,0.00,Wunderground v.1.15,2013-05-16 10:30:00,
2013-05-16 06:40:00,48.7,48.2,29.72,WNW,296,0.0,15.0,98,0.00,,,0.00,Wunderground v.1.15,2013-05-16 10:40:00,
2013-05-16 06:45:00,49.4,48.9,29.72,WNW,296,0.0,15.0,98,0.00,,,0.00,Wunderground v.1.15,2013-05-16 10:45:00,
2013-05-16 06:55:00,50.2,49.7,29.72,ENE,65,0.0,15.0,98,0.00,,,0.00,Wunderground v.1.15,2013-05-16 10:55:00,
2013-05-16 07:00:00,50.1,49.6,29.72,ENE,65,0.0,15.0,98,0.00,,,0.00,Wunderground v.1.15,2013-05-16 11:00:00,
2013-05-16 07:11:00,50.8,50.3,29.72,ENE,72,0.0,15.0,98,0.00,,,0.00,Wunderground v.1.15,2013-05-16 11:11:00,
2013-05-16 07:20:00,51.7,51.2,29.72,NNE,23,0.0,15.0,98,0.00,,,0.00,Wunderground v.1.15,2013-05-16 11:20:00,
2013-05-16 07:25:00,52.5,52.0,29.72,ENE,61,0.0,15.0,98,0.00,,,0.00,Wunderground v.1.15,2013-05-16 11:25:00,
2013-05-16 07:35:00,53.8,53.2,29.73,East,87,0.0,15.0,98,0.00,,,0.00,Wunderground v.1.15,2013-05-16 11:35:00,
2013-05-16 07:40:00,55.0,54.4,29.74,East,82,0.0,15.0,98,0.00,,,0.00,Wunderground v.1.15,2013-05-16 11:40:00,
2013-05-16 07:50:00,58.1,56.1,29.74,SW,231,0.0,15.0,93,0.00,,,0.00,Wunderground v.1.15,2013-05-16 11:50:00,
2013-05-16 08:00:00,61.7,53.0,29.75,SE,132,1.0,1.0,73,0.00,,,0.00,Wunderground v.1.15,2013-05-16 12:00:00,
2013-05-16 08:11:00,63.8,51.8,29.75,SW,225,0.0,15.0,65,0.00,,,0.00,Wunderground v.1.15,2013-05-16 12:11:00,
2013-05-16 08:20:00,65.3,51.1,29.75,WSW,249,1.0,1.0,60,0.00,,,0.00,Wunderground v.1.15,2013-05-16 12:20:00,
2013-05-16 08:30:00,66.6,49.9,29.75,West,280,1.0,1.0,55,0.00,,,0.00,Wunderground v.1.15,2013-05-16 12:30:00,
2013-05-16 08:40:00,67.4,50.2,29.76,NW,316,1.0,15.0,54,0.00,,,0.00,Wunderground v.1.15,2013-05-16 12:40:00,
2013-05-16 08:50:00,67.6,48.8,29.76,WSW,246,1.0,15.0,51,0.00,,,0.00,Wunderground v.1.15,2013-05-16 12:50:00,
2013-05-16 09:00:00,67.1,48.4,29.76,SW,221,1.0,1.0,51,0.00,,,0.00,Wunderground v.1.15,2013-05-16 13:00:00,
2013-05-16 09:11:00,67.2,47.9,29.77,North,356,1.0,15.0,50,0.00,,,0.00,Wunderground v.1.15,2013-05-16 13:11:00,
2013-05-16 09:20:00,67.5,47.7,29.77,SW,233,1.0,1.0,49,0.00,,,0.00,Wunderground v.1.15,2013-05-16 13:20:00,
2013-05-16 09:30:00,68.8,49.9,29.77,SW,221,1.0,15.0,51,0.00,,,0.00,Wunderground v.1.15,2013-05-16 13:30:00,
2013-05-16 09:40:00,69.3,47.6,29.76,NW,307,2.0,2.0,46,0.00,,,0.00,Wunderground v.1.15,2013-05-16 13:40:00,
2013-05-16 09:50:00,69.5,49.5,29.77,WSW,240,1.0,15.0,49,0.00,,,0.00,Wunderground v.1.15,2013-05-16 13:50:00,
2013-05-16 10:00:00,69.7,47.4,29.77,East,86,2.0,15.0,45,0.00,,,0.00,Wunderground v.1.15,2013-05-16 14:00:00,
2013-05-16 10:11:00,69.6,46.1,29.77,NNE,14,1.0,1.0,43,0.00,,,0.00,Wunderground v.1.15,2013-05-16 14:11:00,
2013-05-16 10:20:00,71.0,44.8,29.77,West,267,2.0,2.0,39,0.00,,,0.00,Wunderground v.1.15,2013-05-16 14:20:00,
2013-05-16 10:30:00,72.3,45.9,29.77,West,277,3.0,3.0,39,0.00,,,0.00,Wunderground v.1.15,2013-05-16 14:30:00,
2013-05-16 10:40:00,73.2,46.1,29.77,WNW,298,2.0,2.0,38,0.00,,,0.00,Wunderground v.1.15,2013-05-16 14:40:00,
2013-05-16 10:50:00,73.9,44.5,29.76,NNE,14,2.0,2.0,35,0.00,,,0.00,Wunderground v.1.15,2013-05-16 14:50:00,
2013-05-16 11:00:00,75.1,44.8,29.76,NW,304,2.0,15.0,34,0.00,,,0.00,Wunderground v.1.15,2013-05-16 15:00:00,
2013-05-16 11:11:00,74.5,44.3,29.76,WSW,239,3.0,3.0,34,0.00,,,0.00,Wunderground v.1.15,2013-05-16 15:11:00,
2013-05-16 11:20:00,74.5,41.0,29.76,WSW,241,3.0,3.0,30,0.00,,,0.00,Wunderground v.1.15,2013-05-16 15:20:00,
2013-05-16 11:25:00,75.0,43.9,29.76,SSE,147,2.0,15.0,33,0.00,,,0.00,Wunderground v.1.15,2013-05-16 15:25:00,
2013-05-16 11:35:00,76.2,42.5,29.75,WSW,246,2.0,15.0,30,0.00,,,0.00,Wunderground v.1.15,2013-05-16 15:35:00,
2013-05-16 11:45:00,76.5,44.4,29.75,WNW,302,3.0,15.0,32,0.00,,,0.00,Wunderground v.1.15,2013-05-16 15:45:00,
2013-05-16 11:50:00,76.6,44.5,29.74,NNE,32,2.0,15.0,32,0.00,,,0.00,Wunderground v.1.15,2013-05-16 15:50:00,
2013-05-16 12:00:00,77.0,44.0,29.74,WNW,293,2.0,15.0,31,0.00,,,0.00,Wunderground v.1.15,2013-05-16 16:00:00,
2013-05-16 12:11:00,77.2,41.6,29.73,NNE,20,2.0,2.0,28,0.00,,,0.00,Wunderground v.1.15,2013-05-16 16:11:00,
2013-05-16 12:20:00,77.1,40.5,29.73,WNW,293,3.0,3.0,27,0.00,,,0.00,Wunderground v.1.15,2013-05-16 16:20:00,
2013-05-16 12:30:00,77.5,41.8,29.73,WNW,298,2.0,15.0,28,0.00,,,0.00,Wunderground v.1.15,2013-05-16 16:30:00,
2013-05-16 12:35:00,78.0,41.3,29.73,WSW,257,2.0,15.0,27,0.00,,,0.00,Wunderground v.1.15,2013-05-16 16:35:00,
2013-05-16 12:45:00,78.1,39.4,29.72,West,262,2.0,15.0,25,0.00,,,0.00,Wunderground v.1.15,2013-05-16 16:45:00,
2013-05-16 12:50:00,78.0,38.3,29.72,NW,321,3.0,3.0,24,0.00,,,0.00,Wunderground v.1.15,2013-05-16 16:50:00,
2013-05-16 13:00:00,78.4,39.7,29.72,WNW,302,3.0,3.0,25,0.00,,,0.00,Wunderground v.1.15,2013-05-16 17:00:00,
2013-05-16 13:11:00,78.9,42.1,29.72,WSW,242,2.0,15.0,27,0.00,,,0.00,Wunderground v.1.15,2013-05-16 17:11:00,
2013-05-16 13:20:00,79.0,41.2,29.72,West,276,2.0,2.0,26,0.00,,,0.00,Wunderground v.1.15,2013-05-16 17:20:00,
2013-05-16 13:25:00,79.1,39.2,29.71,WSW,239,2.0,15.0,24,0.00,,,0.00,Wunderground v.1.15,2013-05-16 17:25:00,
2013-05-16 13:35:00,79.2,40.3,29.71,SW,214,3.0,3.0,25,0.00,,,0.00,Wunderground v.1.15,2013-05-16 17:35:00,
2013-05-16 13:45:00,79.1,42.2,29.71,SW,235,2.0,15.0,27,0.00,,,0.00,Wunderground v.1.15,2013-05-16 17:45:00,
2013-05-16 13:55:00,79.4,46.1,29.71,SSW,192,2.0,15.0,31,0.00,,,0.00,Wunderground v.1.15,2013-05-16 17:55:00,
2013-05-16 14:05:00,77.6,49.3,29.70,SE,124,3.0,15.0,37,0.00,,,0.00,Wunderground v.1.15,2013-05-16 18:05:00,
2013-05-16 14:15:00,76.8,47.8,29.70,SSE,158,3.0,3.0,36,0.00,,,0.00,Wunderground v.1.15,2013-05-16 18:15:00,
2013-05-16 14:25:00,76.2,47.3,29.70,ENE,76,3.0,15.0,36,0.00,,,0.00,Wunderground v.1.15,2013-05-16 18:25:00,
2013-05-16 14:35:00,75.8,47.7,29.70,ESE,109,3.0,15.0,37,0.00,,,0.00,Wunderground v.1.15,2013-05-16 18:35:00,
2013-05-16 14:45:00,76.0,47.1,29.70,SSE,164,3.0,15.0,36,0.00,,,0.00,Wunderground v.1.15,2013-05-16 18:45:00,
2013-05-16 14:55:00,76.1,47.9,29.69,SSW,194,2.0,15.0,37,0.00,,,0.00,Wunderground v.1.15,2013-05-16 18:55:00,
2013-05-16 15:05:00,76.7,47.7,29.70,SE,139,2.0,15.0,36,0.00,,,0.00,Wunderground v.1.15,2013-05-16 19:05:00,
2013-05-16 15:11:00,76.5,46.0,29.69,SE,134,2.0,15.0,34,0.00,,,0.00,Wunderground v.1.15,2013-05-16 19:11:00,
2013-05-16 15:20:00,76.3,47.4,29.69,ESE,121,2.0,15.0,36,0.00,,,0.00,Wunderground v.1.15,2013-05-16 19:20:00,
2013-05-16 15:30:00,76.6,46.9,29.69,SSE,161,2.0,2.0,35,0.00,,,0.00,Wunderground v.1.15,2013-05-16 19:30:00,
2013-05-16 15:40:00,76.6,47.6,29.69,SE,130,2.0,15.0,36,0.00,,,0.00,Wunderground v.1.15,2013-05-16 19:40:00,
2013-05-16 15:50:00,76.3,47.4,29.69,SE,139,2.0,15.0,36,0.00,,,0.00,Wunderground v.1.15,2013-05-16 19:50:00,
2013-05-16 16:00:00,76.4,45.9,29.69,SE,127,2.0,15.0,34,0.00,,,0.00,Wunderground v.1.15,2013-05-16 20:00:00,
2013-05-16 16:11:00,76.7,46.2,29.69,SSE,154,2.0,15.0,34,0.00,,,0.00,Wunderground v.1.15,2013-05-16 20:11:00,
2013-05-16 16:20:00,77.2,45.9,29.68,WNW,291,1.0,15.0,33,0.00,,,0.00,Wunderground v.1.15,2013-05-16 20:20:00,
2013-05-16 16:30:00,77.1,45.8,29.68,SE,134,2.0,2.0,33,0.00,,,0.00,Wunderground v.1.15,2013-05-16 20:30:00,
2013-05-16 19:35:00,70.0,50.5,29.72,ESE,116,1.0,1.0,50,0.00,,,0.00,Wunderground v.1.15,2013-05-16 23:35:00,
2013-05-16 19:40:00,69.7,50.8,29.72,SW,219,1.0,2.0,51,0.00,,,0.00,Wunderground v.1.15,2013-05-16 23:40:00,
2013-05-16 19:50:00,69.3,51.4,29.73,East,91,0.0,15.0,53,0.00,,,0.00,Wunderground v.1.15,2013-05-16 23:50:00,
2013-05-16 20:00:00,68.8,52.0,29.73,ESE,109,1.0,1.0,55,0.00,,,0.00,Wunderground v.1.15,2013-05-17 00:00:00,
2013-05-16 20:11:00,68.2,52.4,29.74,SE,132,0.0,15.0,57,0.00,,,0.00,Wunderground v.1.15,2013-05-17 00:11:00,
2013-05-16 20:20:00,67.6,52.8,29.74,SE,127,0.0,15.0,59,0.00,,,0.00,Wunderground v.1.15,2013-05-17 00:20:00,
2013-05-16 20:30:00,66.6,52.7,29.74,SE,132,0.0,15.0,61,0.00,,,0.00,Wunderground v.1.15,2013-05-17 00:30:00,
2013-05-16 20:35:00,66.1,52.7,29.74,SE,142,0.0,15.0,62,0.00,,,0.00,Wunderground v.1.15,2013-05-17 00:35:00,
2013-05-16 20:45:00,65.0,52.5,29.75,SE,143,0.0,15.0,64,0.00,,,0.00,Wunderground v.1.15,2013-05-17 00:45:00,
2013-05-16 20:55:00,64.2,52.6,29.75,SE,142,0.0,15.0,66,0.00,,,0.00,Wunderground v.1.15,2013-05-17 00:55:00,
2013-05-16 21:05:00,63.4,52.2,29.75,SE,142,0.0,15.0,67,0.00,,,0.00,Wunderground v.1.15,2013-05-17 01:05:00,
2013-05-16 21:15:00,62.8,51.7,29.76,SE,142,0.0,15.0,67,0.00,,,0.00,Wunderground v.1.15,2013-05-17 01:15:00,
2013-05-16 21:25:00,62.4,52.1,29.76,SE,141,0.0,15.0,69,0.00,,,0.00,Wunderground v.1.15,2013-05-17 01:25:00,
2013-05-16 21:35:00,61.9,51.2,29.77,SE,141,0.0,15.0,68,0.00,,,0.00,Wunderground v.1.15,2013-05-17 01:35:00,
2013-05-16 21:45:00,61.4,51.1,29.77,SE,141,0.0,15.0,69,0.00,,,0.00,Wunderground v.1.15,2013-05-17 01:45:00,
2013-05-16 21:55:00,61.2,50.6,29.77,SE,135,0.0,15.0,68,0.00,,,0.00,Wunderground v.1.15,2013-05-17 01:55:00,
2013-05-16 22:05:00,60.7,50.1,29.77,SE,135,0.0,15.0,68,0.00,,,0.00,Wunderground v.1.15,2013-05-17 02:05:00,
2013-05-16 22:15:00,60.0,49.8,29.77,SE,135,0.0,15.0,69,0.00,,,0.00,Wunderground v.1.15,2013-05-17 02:15:00,
2013-05-16 22:20:00,59.7,49.1,29.78,SE,135,0.0,15.0,68,0.00,,,0.00,Wunderground v.1.15,2013-05-17 02:20:00,
2013-05-16 22:30:00,59.5,51.2,29.79,WNW,298,1.0,15.0,74,0.00,,,0.00,Wunderground v.1.15,2013-05-17 02:30:00,
2013-05-16 22:40:00,59.4,49.2,29.79,SSW,198,0.0,15.0,69,0.00,,,0.00,Wunderground v.1.15,2013-05-17 02:40:00,
2013-05-16 22:50:00,59.4,50.7,29.79,SSW,200,0.0,15.0,73,0.00,,,0.00,Wunderground v.1.15,2013-05-17 02:50:00,
2013-05-16 23:00:00,58.6,50.0,29.80,SW,228,0.0,15.0,73,0.00,,,0.00,Wunderground v.1.15,2013-05-17 03:00:00,
2013-05-16 23:11:00,58.2,50.3,29.80,SW,228,0.0,15.0,75,0.00,,,0.00,Wunderground v.1.15,2013-05-17 03:11:00,
2013-05-16 23:20:00,57.6,50.4,29.80,SW,228,0.0,15.0,77,0.00,,,0.00,Wunderground v.1.15,2013-05-17 03:20:00,
2013-05-16 23:25:00,57.4,50.6,29.80,SW,228,0.0,15.0,78,0.00,,,0.00,Wunderground v.1.15,2013-05-17 03:25:00,
2013-05-16 23:35:00,56.9,50.5,29.80,SW,228,0.0,15.0,79,0.00,,,0.00,Wunderground v.1.15,2013-05-17 03:35:00,
2013-05-16 23:45:00,56.3,50.2,29.80,West,271,0.0,15.0,80,0.00,,,0.00,Wunderground v.1.15,2013-05-17 03:45:00,
2013-05-16 23:50:00,56.1,50.3,29.80,West,271,0.0,15.0,81,0.00,,,0.00,Wunderground v.1.15,2013-05-17 03:50:00,